Latest Weather Observations for Ferny Creek

IDV60901

Issued at 10:15 am EST Wednesday 24 September 2014 (issued every 10 minutes, with the page automatically refreshed every 10 minutes)

About weather observations | Map of Melbourne area stations | Latest observations for Melbourne area | Other Formats
Station Details ID: 086266 Name: FERNY CREEK Lat: -37.87 Lon: 145.35 Height: 512.9 m
Data from the previous 72 hours. | See also: Recent months at Ferny Creek
Date/Time
EST
Tmp

°C
App
Tmp
°C
Dew
Point
°C
Rel
Hum
%
Delta-T

°C
Wind Press
QNH
hPa
Press
MSL
hPa
Rain
since
9 am
mm
Dir
 
Spd
km/h
Gust
km/h
Spd
kts
Gust
kts
24/10:00am 18.1 15.0 8.7 54 5.0 NNE 15 32 8 17 1017.6 1017.9 0.0
24/09:30am 17.9 14.1 7.6 51 5.4 NNE 17 33 9 18 1017.8 1018.1 0.0
24/09:00am 16.3 12.4 7.3 55 4.6 NNE 17 37 9 20 1017.9 1018.2 0.0
24/08:30am 15.4 12.2 6.9 57 4.3 NNE 13 28 7 15 1018.2 1018.5 0.0
24/08:00am 14.6 12.0 6.2 57 4.1 NNE 9 20 5 11 1018.4 1018.7 0.0
24/07:30am 14.9 12.5 5.4 53 4.6 N 7 20 4 11 1018.6 1019.0 0.0
24/07:00am 15.7 12.3 4.1 46 5.5 N 11 22 6 12 1018.6 1019.0 0.0
24/06:30am 16.3 12.7 3.0 41 6.2 N 11 24 6 13 1018.4 1018.7 0.0
24/06:00am 16.3 12.7 3.0 41 6.2 NNE 11 26 6 14 1018.4 1018.7 0.0
24/05:30am 15.9 12.0 3.4 43 5.9 NE 13 24 7 13 1018.3 1018.6 0.0
24/05:00am 15.8 12.3 3.3 43 5.9 NE 11 22 6 12 1018.4 1018.7 0.0
24/04:30am 16.1 12.5 3.2 42 6.1 NNE 11 20 6 11 1018.5 1018.8 0.0
24/04:00am 15.8 12.6 2.9 42 6.0 NNE 9 24 5 13 1018.7 1019.1 0.0
24/03:30am 16.0 12.4 3.1 42 6.0 NNE 11 22 6 12 1019.1 1019.4 0.0
24/03:00am 16.1 12.0 2.5 40 6.3 NNE 13 28 7 15 1019.3 1019.6 0.0
24/02:30am 15.8 13.0 2.9 42 6.0 NNE 7 19 4 10 1019.6 1019.9 0.0
24/02:00am 15.8 13.6 3.6 44 5.7 NNE 4 9 2 5 1020.0 1020.3 0.0
24/01:30am 15.5 13.5 4.3 47 5.4 N 4 9 2 5 1020.3 1020.7 0.0
24/01:00am 16.0 13.4 3.4 43 5.9 NNE 6 13 3 7 1020.7 1021.1 0.0
24/12:30am 15.4 13.4 4.2 47 5.3 N 4 9 2 5 1020.8 1021.2 0.0
24/12:00am 15.7 13.4 4.7 48 5.3 NE 6 11 3 6 1021.4 1021.7 0.0
 
Date/Time
EST
Tmp

°C
App
Tmp
°C
Dew
Point
°C
Rel
Hum
%
Delta-T

°C
Wind Press
QNH
hPa
Press
MSL
hPa
Rain
since
9 am
mm
Dir
 
Spd
km/h
Gust
km/h
Spd
kts
Gust
kts
23/11:30pm 15.6 13.2 5.2 50 5.1 NE 7 11 4 6 1021.7 1022.0 0.0
23/11:00pm 15.6 13.3 4.9 49 5.2 NNE 6 11 3 6 1022.0 1022.4 0.0
23/10:30pm 15.3 13.5 5.2 51 4.9 NNE 4 7 2 4 1022.3 1022.7 0.0
23/10:00pm 15.3 13.1 5.2 51 4.9 NNE 6 11 3 6 1022.7 1023.1 0.0
23/09:30pm 15.8 13.7 5.7 51 5.0 NNE 6 9 3 5 1023.1 1023.4 0.0
23/09:00pm 15.4 13.6 5.6 52 4.8 NE 4 9 2 5 1023.3 1023.6 0.0
23/08:30pm 15.5 13.5 4.6 48 5.2 N 4 11 2 6 1023.3 1023.6 0.0
23/08:00pm 15.9 13.5 4.3 46 5.5 NNE 6 11 3 6 1023.2 1023.5 0.0
23/07:30pm 16.1 14.1 4.5 46 5.6 NNE 4 9 2 5 1023.1 1023.4 0.0
23/07:00pm 16.1 14.2 4.8 47 5.5 N 4 9 2 5 1022.9 1023.3 0.0
23/06:30pm 15.7 13.9 5.3 50 5.1 N 4 6 2 3 1023.1 1023.4 0.0
23/06:00pm 17.0 15.6 5.6 47 5.6 N 2 4 1 2 1023.3 1023.6 0.0
23/05:30pm 17.2 15.5 6.1 48 5.6 NNE 4 7 2 4 1023.4 1023.7 0.0
23/05:00pm 18.3 15.6 5.8 44 6.3 NE 9 15 5 8 1023.4 1023.7 0.0
23/04:30pm 18.9 16.3 6.1 43 6.5 NE 9 19 5 10 1023.4 1023.7 0.0
23/04:00pm 20.0 18.2 7.1 43 6.7 N 6 13 3 7 1023.6 1024.0 0.0
23/03:30pm 20.0 17.8 5.3 38 7.4 N 6 15 3 8 1023.9 1024.3 0.0
23/03:00pm 19.6 16.9 5.6 40 7.0 NE 9 15 5 8 1024.1 1024.5 0.0
23/02:30pm 20.0 17.7 4.9 37 7.5 N 6 15 3 8 1024.5 1024.9 0.0
23/02:00pm 20.9 19.1 7.2 41 7.2 NNW 6 11 3 6 1024.7 1025.1 0.0
23/01:30pm 20.2 17.8 5.1 37 7.6 NNW 7 19 4 10 1024.9 1025.3 0.0
23/01:00pm 19.4 16.9 4.7 38 7.3 NNW 7 17 4 9 1025.3 1025.7 0.0
23/12:30pm 19.6 16.7 4.5 37 7.5 NNW 9 22 5 12 1025.8 1026.2 0.0
23/12:00pm 19.1 16.5 5.9 42 6.7 N 9 19 5 10 1026.3 1026.7 0.0
23/11:30am 18.8 16.9 6.6 45 6.3 N 6 13 3 7 1026.6 1027.0 0.0
23/11:00am 18.2 15.7 6.7 47 5.8 N 9 20 5 11 1026.9 1027.4 0.0
23/10:30am 17.8 15.6 6.0 46 5.9 NNW 7 19 4 10 1027.3 1027.7 0.0
23/10:00am 18.0 15.9 5.9 45 6.0 N 6 11 3 6 1027.5 1027.9 0.0
23/09:30am 17.2 14.8 4.5 43 6.2 N 6 20 3 11 1027.8 1028.2 0.0
23/09:00am 16.6 14.1 4.9 46 5.7 N 7 17 4 9 1028.0 1028.4 0.0
23/08:30am 16.3 13.9 4.4 45 5.7 N 6 11 3 6 1028.1 1028.5 0.0
23/08:00am 15.9 13.3 4.0 45 5.6 N 7 13 4 7 1027.9 1028.3 0.0
23/07:30am 15.8 13.3 3.6 44 5.8 NNE 6 13 3 7 1027.8 1028.2 0.0
23/07:00am 15.0 12.1 2.5 43 5.7 NE 7 17 4 9 1027.5 1027.9 0.0
23/06:30am 13.8 10.9 2.4 46 5.2 NNE 7 17 4 9 1027.5 1027.9 0.0
23/06:00am 13.2 10.8 2.1 47 4.9 NE 4 9 2 5 1027.3 1027.7 0.0
23/05:30am 13.0 10.6 2.3 48 4.8 N 4 9 2 5 1027.2 1027.6 0.0
23/05:00am 12.7 10.6 1.4 46 4.9 NE 2 7 1 4 1026.7 1027.1 0.0
23/04:30am 12.7 10.2 1.7 47 4.9 NNE 4 11 2 6 1026.5 1026.9 0.0
23/04:00am 12.3 10.0 2.5 51 4.4 N 4 9 2 5 1026.4 1026.8 0.0
23/03:30am 12.2 9.5 2.6 52 4.3 N 6 9 3 5 1026.3 1026.7 0.0
23/03:00am 12.4 9.7 2.8 52 4.3 NNE 6 13 3 7 1026.5 1026.9 0.0
23/02:30am 12.9 10.1 3.0 51 4.5 N 7 13 4 7 1026.6 1027.0 0.0
23/02:00am 12.8 10.3 3.7 54 4.2 N 6 15 3 8 1026.9 1027.4 0.0
23/01:30am 12.8 10.4 4.5 57 3.9 NNE 6 13 3 7 1027.2 1027.6 0.0
23/01:00am 13.0 10.6 4.4 56 4.0 N 6 9 3 5 1027.4 1027.8 0.0
23/12:30am 12.5 10.4 4.0 56 3.9 N 4 9 2 5 1027.7 1028.1 0.0
23/12:00am 12.2 10.1 3.9 57 3.8 N 4 7 2 4 1027.9 1028.3 0.0
 
Date/Time
EST
Tmp

°C
App
Tmp
°C
Dew
Point
°C
Rel
Hum
%
Delta-T

°C
Wind Press
QNH
hPa
Press
MSL
hPa
Rain
since
9 am
mm
Dir
 
Spd
km/h
Gust
km/h
Spd
kts
Gust
kts
22/11:30pm 13.2 11.1 3.8 53 4.4 N 4 13 2 7 1028.0 1028.4 0.0
22/11:00pm 13.3 11.0 4.7 56 4.1 N 6 9 3 5 1028.1 1028.5 0.0
22/10:30pm 13.5 11.3 5.4 58 3.9 N 6 9 3 5 1028.3 1028.7 0.0
22/10:00pm 13.6 11.4 5.5 58 3.9 N 6 11 3 6 1028.3 1028.7 0.0
22/09:30pm 13.9 11.8 5.8 58 4.0 N 6 9 3 5 1028.3 1028.7 0.0
22/09:00pm 14.0 11.9 5.9 58 3.9 N 6 13 3 7 1028.3 1028.7 0.0
22/08:30pm 13.7 12.0 5.8 59 3.8 N 4 6 2 3 1028.3 1028.7 0.0
22/08:00pm 13.6 11.8 5.5 58 3.9 N 4 9 2 5 1028.3 1028.7 0.0
22/07:30pm 13.4 12.3 5.1 57 4.0 CALM 0 0 0 0 1028.2 1028.6 0.0
22/07:00pm 13.6 12.3 4.2 53 4.4 CALM 0 6 0 3 1027.9 1028.3 0.0
22/06:30pm 13.9 12.0 5.0 55 4.3 N 4 7 2 4 1027.5 1027.9 0.0
22/06:00pm 14.7 13.5 6.5 58 4.1 N 2 6 1 3 1027.3 1027.7 0.0
22/05:30pm 15.8 15.0 6.3 53 4.7 CALM 0 7 0 4 1027.3 1027.7 0.0
22/05:00pm 16.4 14.8 6.2 51 5.1 N 4 9 2 5 1027.2 1027.6 0.0
22/04:30pm 17.5 15.5 6.4 48 5.6 N 6 13 3 7 1026.9 1027.4 0.0
22/04:00pm 17.7 15.6 5.6 45 6.0 N 6 15 3 8 1026.9 1027.4 0.0
22/03:30pm 18.3 16.5 7.1 48 5.8 NNW 6 17 3 9 1027.0 1027.5 0.0
22/03:00pm 19.0 16.8 5.5 41 6.7 NW 6 17 3 9 1027.0 1027.5 0.0
22/02:30pm 17.8 15.4 5.1 43 6.3 N 7 15 4 8 1027.3 1027.7 0.0
22/02:00pm 17.8 15.6 5.1 43 6.2 N 6 13 3 7 1027.4 1027.8 0.0
22/01:30pm 17.6 15.1 4.9 43 6.2 N 7 15 4 8 1027.7 1028.1 0.0
22/01:00pm 17.2 14.5 3.8 41 6.4 NNW 7 19 4 10 1027.9 1028.3 0.0
22/12:30pm 16.9 14.7 6.4 50 5.3 N 7 19 4 10 1028.2 1028.6 0.0
22/12:00pm 15.9 13.8 6.6 54 4.6 NNW 7 15 4 8 1028.6 1029.1 0.0
22/11:30am 15.7 13.8 7.5 58 4.2 NNW 7 15 4 8 1029.0 1029.5 0.0
22/11:00am 15.2 13.2 7.3 59 4.0 N 7 13 4 7 1029.3 1029.7 0.0
22/10:30am 14.8 13.1 7.4 61 3.8 N 6 15 3 8 1029.5 1029.9 0.0
22/10:00am 14.9 13.1 7.2 60 3.9 NNW 6 13 3 7 1029.6 1030.0 0.0
22/09:30am 14.3 12.4 6.6 60 3.8 NNW 6 15 3 8 1029.6 1030.0 0.0
22/09:00am 14.0 12.0 6.1 59 3.9 NNW 6 13 3 7 1029.6 1030.0 0.0
22/08:30am 13.7 11.6 5.6 58 3.9 NW 6 15 3 8 1029.5 1029.9 0.0
22/08:00am 13.0 11.3 5.7 61 3.5 NNW 4 11 2 6 1029.3 1029.7 0.0
22/07:30am 12.4 10.6 5.3 62 3.4 NW 4 6 2 3 1029.0 1029.5 0.0
22/07:00am 11.1 9.7 5.4 68 2.7 NW 2 4 1 2 1028.9 1029.4 0.0
22/06:30am 9.8 7.9 4.8 71 2.3 NW 4 6 2 3 1028.6 1029.1 0.0
22/06:00am 9.1 7.0 4.1 71 2.2 NW 4 6 2 3 1028.3 1028.7 0.0
22/05:30am 8.9 6.7 3.5 69 2.4 NW 4 6 2 3 1028.0 1028.4 0.0
22/05:00am 7.2 6.0 4.7 84 1.1 CALM 0 0 0 0 1028.0 1028.4 0.0
22/04:30am 7.5 6.4 5.3 86 1.0 CALM 0 0 0 0 1028.0 1028.4 0.0
22/04:00am 6.7 5.6 5.2 90 0.7 CALM 0 0 0 0 1028.0 1028.4 0.0
22/03:30am 6.6 5.6 5.4 92 0.5 CALM 0 0 0 0 1028.0 1028.4 0.0
22/03:00am 6.5 5.5 5.5 93 0.5 CALM 0 0 0 0 1028.1 1028.5 0.0
22/02:30am 6.6 5.5 5.2 91 0.6 CALM 0 2 0 1 1028.4 1028.8 0.0
22/02:00am 6.4 4.9 4.9 90 0.7 S 2 4 1 2 1028.7 1029.2 0.0
22/01:30am 6.8 5.8 5.4 91 0.6 CALM 0 0 0 0 1028.8 1029.3 0.0
22/01:00am 6.1 4.9 4.7 91 0.6 CALM 0 0 0 0 1028.9 1029.4 0.0
22/12:30am 6.2 5.0 4.5 89 0.8 CALM 0 0 0 0 1028.8 1029.3 0.0
22/12:00am 5.8 4.5 4.1 89 0.7 CALM 0 2 0 1 1029.0 1029.5 0.0
 
Date/Time
EST
Tmp

°C
App
Tmp
°C
Dew
Point
°C
Rel
Hum
%
Delta-T

°C
Wind Press
QNH
hPa
Press
MSL
hPa
Rain
since
9 am
mm
Dir
 
Spd
km/h
Gust
km/h
Spd
kts
Gust
kts
21/11:30pm 6.2 5.0 4.4 88 0.8 CALM 0 2 0 1 1029.1 1029.6 0.0
21/11:00pm 6.0 4.4 4.3 89 0.7 NE 2 4 1 2 1029.4 1029.8 0.0
21/10:30pm 6.0 4.8 4.5 90 0.7 CALM 0 0 0 0 1029.6 1030.0 0.0
21/10:00pm 6.0 4.4 4.5 90 0.7 E 2 4 1 2 1029.8 1030.2 0.0
21/09:30pm 6.2 4.6 4.5 89 0.8 SE 2 7 1 4 1030.0 1030.4 0.0
21/09:00pm 6.6 4.3 4.6 87 0.9 SE 6 11 3 6 1030.0 1030.4 0.0
21/08:30pm 6.6 4.6 4.6 87 0.9 ESE 4 9 2 5 1030.1 1030.5 0.0
21/08:00pm 7.0 4.7 4.8 86 1.0 ESE 6 13 3 7 1029.9 1030.3 0.0
21/07:30pm 7.2 4.9 4.9 85 1.0 SE 6 13 3 7 1029.9 1030.3 0.0
21/07:00pm 7.5 5.3 5.1 85 1.1 SE 6 11 3 6 1029.9 1030.3 0.0
21/06:30pm 8.4 6.6 5.5 82 1.3 SE 4 11 2 6 1029.7 1030.1 0.0
21/06:00pm 8.9 7.1 5.3 78 1.7 SE 4 9 2 5 1029.4 1029.8 0.0
21/05:30pm 9.7 8.0 5.7 76 1.9 ESE 4 11 2 6 1029.3 1029.7 0.0
21/05:00pm 10.4 8.2 5.4 71 2.3 SE 6 9 3 5 1029.1 1029.6 0.0
21/04:30pm 11.4 9.3 5.7 68 2.7 SSE 6 13 3 7 1029.0 1029.5 0.0
21/04:00pm 12.1 10.0 5.7 65 3.1 ESE 6 11 3 6 1029.1 1029.6 0.0
21/03:30pm 13.2 11.4 5.4 59 3.8 S 4 9 2 5 1029.0 1029.5 0.0
21/03:00pm 12.9 10.7 5.1 59 3.7 E 6 7 3 4 1029.3 1029.7 0.0
21/02:30pm 12.8 10.8 6.2 64 3.2 SSE 6 9 3 5 1029.5 1029.9 0.0
21/02:00pm 11.9 9.6 4.9 62 3.3 ESE 6 9 3 5 1029.8 1030.2 0.0
21/01:30pm 12.2 9.9 5.6 64 3.2 SE 7 15 4 8 1030.0 1030.4 0.0
21/01:00pm 11.3 8.8 4.5 63 3.1 E 7 17 4 9 1030.3 1030.8 0.0
21/12:30pm 11.7 9.7 6.4 70 2.6 SSE 6 17 3 9 1030.7 1031.2 0.0
21/12:00pm 11.1 8.6 5.0 66 2.8 E 7 13 4 7 1030.9 1031.4 0.0
21/11:30am 10.3 7.7 4.0 65 2.9 ESE 7 15 4 8 1031.2 1031.7 0.0
21/11:00am 10.6 7.7 4.7 67 2.7 ESE 9 17 5 9 1031.4 1031.8 0.0
21/10:30am 9.9 7.3 4.3 68 2.6 SSE 7 15 4 8 1031.4 1031.8 0.0

Latest Capital City Observations: Canberra | Sydney | Melbourne | Brisbane | Adelaide | Perth | Hobart | Darwin

Other Formats:

Comma delimited format used in spreadsheet applications
http://www.bom.gov.au/fwo/IDV60901/IDV60901.94872.axf

JavaScript Object Notation format (JSON) in row-major order
http://www.bom.gov.au/fwo/IDV60901/IDV60901.94872.json